createdAt,value
2023-03-15T00:00:10.568Z,88.07
2023-03-15T00:01:33.253Z,88.06
2023-03-15T00:02:36.384Z,88.12
2023-03-15T00:03:39.989Z,88.07
2023-03-15T00:04:42.664Z,88.07
2023-03-15T00:05:46.206Z,88.02
2023-03-15T00:06:48.853Z,88.03
2023-03-15T00:07:51.468Z,88.04
2023-03-15T00:08:54.124Z,88.02
2023-03-15T00:09:56.985Z,87.97
2023-03-15T00:11:00.425Z,88.09
2023-03-15T00:12:03.139Z,87.96
2023-03-15T00:13:05.855Z,88.01
2023-03-15T00:14:08.713Z,87.85
2023-03-15T00:15:13.382Z,88.10
2023-03-15T00:16:18.188Z,88.01
2023-03-15T00:17:22.858Z,87.92
2023-03-15T00:18:25.831Z,87.93
2023-03-15T00:19:28.481Z,87.87
2023-03-15T00:20:31.256Z,87.95
2023-03-15T00:21:34.393Z,87.93
2023-03-15T00:22:37.063Z,87.91
2023-03-15T00:23:39.699Z,87.88
2023-03-15T00:24:42.463Z,87.98
2023-03-15T00:25:45.815Z,88.00
2023-03-15T00:26:48.479Z,88.00
2023-03-15T00:27:51.168Z,87.92
2023-03-15T00:28:53.852Z,87.94
2023-03-15T00:29:56.507Z,87.79
2023-03-15T00:31:06.834Z,87.68
2023-03-15T00:32:09.819Z,87.58
2023-03-15T00:33:14.293Z,87.44
2023-03-15T00:34:18.983Z,86.69
2023-03-15T00:35:22.230Z,86.04
2023-03-15T00:36:25.369Z,85.87
2023-03-15T00:37:28.468Z,85.62
2023-03-15T00:38:31.995Z,85.57
2023-03-15T00:39:37.874Z,85.37
2023-03-15T00:40:44.090Z,85.38
2023-03-15T00:41:47.279Z,85.29
2023-03-15T00:42:50.755Z,85.30
2023-03-15T00:43:53.476Z,85.24
2023-03-15T00:44:56.180Z,85.24
2023-03-15T00:45:59.351Z,85.25
2023-03-15T00:47:02.033Z,85.41
2023-03-15T00:48:04.977Z,85.30
2023-03-15T00:49:07.628Z,85.14
2023-03-15T00:50:10.675Z,84.93
2023-03-15T00:51:14.896Z,85.00
2023-03-15T00:52:18.914Z,84.88
2023-03-15T00:53:22.616Z,84.70
2023-03-15T00:54:25.256Z,84.84
2023-03-15T00:55:28.208Z,84.64
2023-03-15T00:56:31.078Z,84.70
2023-03-15T00:57:37.166Z,84.78
2023-03-15T00:58:40.404Z,84.87
2023-03-15T00:59:45.073Z,84.83
2023-03-15T01:00:47.766Z,84.92
2023-03-15T01:01:51.304Z,85.08
2023-03-15T01:02:54.906Z,85.17
2023-03-15T01:03:58.001Z,85.36
2023-03-15T01:05:01.791Z,85.71
2023-03-15T01:06:05.459Z,85.75
2023-03-15T01:07:09.465Z,86.04
2023-03-15T01:08:13.706Z,86.19
2023-03-15T01:09:17.462Z,86.55
2023-03-15T01:10:21.347Z,86.63
2023-03-15T01:11:25.647Z,86.82
2023-03-15T01:12:29.589Z,86.96
2023-03-15T01:13:33.951Z,87.00
2023-03-15T01:14:39.099Z,87.03
2023-03-15T01:15:45.924Z,87.21
2023-03-15T01:16:48.839Z,87.44
2023-03-15T01:17:51.568Z,87.35
2023-03-15T01:18:54.624Z,87.43
2023-03-15T01:19:58.318Z,87.51
2023-03-15T01:21:01.114Z,87.56
2023-03-15T01:22:04.826Z,87.41
2023-03-15T01:23:07.577Z,87.48
2023-03-15T01:24:14.538Z,87.58
2023-03-15T01:25:18.502Z,87.51
2023-03-15T01:26:23.807Z,87.44
2023-03-15T01:27:26.482Z,87.51
2023-03-15T01:28:29.905Z,87.52
2023-03-15T01:29:32.950Z,87.57
2023-03-15T01:30:37.326Z,87.49
2023-03-15T01:31:41.164Z,87.60
2023-03-15T01:32:44.071Z,87.48
2023-03-15T01:33:47.972Z,87.41
2023-03-15T01:34:50.735Z,87.32
2023-03-15T01:36:04.500Z,87.23
2023-03-15T01:37:07.749Z,87.43
2023-03-15T01:38:16.114Z,87.38
2023-03-15T01:39:20.037Z,87.35
2023-03-15T01:40:22.970Z,87.32
2023-03-15T01:41:27.323Z,87.29
2023-03-15T01:42:30.139Z,87.34
2023-03-15T01:43:33.530Z,87.45
2023-03-15T01:45:05.529Z,87.45
2023-03-15T01:46:17.803Z,87.44
2023-03-15T01:47:21.462Z,87.40
2023-03-15T01:48:29.562Z,87.49
2023-03-15T01:49:33.773Z,87.59
2023-03-15T01:50:36.957Z,87.60
2023-03-15T01:51:43.086Z,87.66
2023-03-15T01:52:45.963Z,87.65
2023-03-15T01:53:58.245Z,87.72
2023-03-15T01:55:05.515Z,87.58
2023-03-15T01:56:09.670Z,87.74
2023-03-15T01:57:24.134Z,87.79
2023-03-15T01:58:27.518Z,87.75
2023-03-15T01:59:33.219Z,87.83
2023-03-15T02:00:37.412Z,87.75
2023-03-15T02:01:45.724Z,87.80
2023-03-15T02:03:04.777Z,87.75
2023-03-15T02:04:09.854Z,87.89
2023-03-15T02:05:18.459Z,87.78
2023-03-15T02:06:21.720Z,87.78
2023-03-15T02:07:29.197Z,87.68
2023-03-15T02:08:34.072Z,87.83
2023-03-15T02:09:42.918Z,87.67
2023-03-15T02:10:48.187Z,87.56
2023-03-15T02:11:51.692Z,87.56
2023-03-15T02:12:55.731Z,87.68
2023-03-15T02:14:00.499Z,87.63
2023-03-15T02:15:04.749Z,87.72
2023-03-15T02:16:08.225Z,87.75
2023-03-15T02:17:20.611Z,87.73
2023-03-15T02:18:24.363Z,87.75
2023-03-15T02:19:34.007Z,87.71
2023-03-15T02:20:49.700Z,87.68
2023-03-15T02:22:01.155Z,87.43
2023-03-15T02:23:05.576Z,87.39
2023-03-15T02:24:08.269Z,87.42
2023-03-15T02:25:18.192Z,87.21
2023-03-15T02:26:30.128Z,86.95
2023-03-15T02:27:35.662Z,86.99
2023-03-15T02:28:39.087Z,86.86
2023-03-15T02:29:42.312Z,86.78
2023-03-15T02:30:45.976Z,86.78
2023-03-15T02:31:49.530Z,86.86
2023-03-15T02:32:52.373Z,86.64
2023-03-15T02:33:58.158Z,86.71
2023-03-15T02:35:00.855Z,86.72
2023-03-15T02:36:08.431Z,86.50
2023-03-15T02:37:12.761Z,86.65
2023-03-15T02:38:15.463Z,86.65
2023-03-15T02:39:21.096Z,86.62
2023-03-15T02:40:24.646Z,86.56
2023-03-15T02:41:38.850Z,86.65
2023-03-15T02:42:42.943Z,86.58
2023-03-15T02:43:46.807Z,86.54
2023-03-15T02:44:50.835Z,86.50
2023-03-15T02:45:53.650Z,86.46
2023-03-15T02:46:59.731Z,86.42
2023-03-15T02:48:03.700Z,86.52
2023-03-15T02:49:08.418Z,86.44
2023-03-15T02:50:11.320Z,86.48
2023-03-15T02:51:19.180Z,86.64
2023-03-15T02:52:22.130Z,86.57
2023-03-15T02:53:24.878Z,86.50
2023-03-15T02:54:27.554Z,86.74
2023-03-15T02:55:32.767Z,86.52
2023-03-15T02:56:35.539Z,86.63
2023-03-15T02:57:38.375Z,86.59
2023-03-15T02:58:41.664Z,86.54
2023-03-15T02:59:44.382Z,86.42
2023-03-15T03:00:47.958Z,86.46
2023-03-15T03:01:51.216Z,86.50
2023-03-15T03:02:54.479Z,86.60
2023-03-15T03:03:57.175Z,86.51
2023-03-15T03:05:00.443Z,86.52
2023-03-15T03:06:03.159Z,86.53
2023-03-15T03:07:05.840Z,86.53
2023-03-15T03:08:16.679Z,86.57
2023-03-15T03:09:19.717Z,86.58
2023-03-15T03:10:22.884Z,86.62
2023-03-15T03:11:28.676Z,86.73
2023-03-15T03:12:32.978Z,86.70
2023-03-15T03:13:36.223Z,86.71
2023-03-15T03:14:39.968Z,86.69
2023-03-15T03:15:45.907Z,86.71
2023-03-15T03:16:50.491Z,86.74
2023-03-15T03:17:54.558Z,86.82
2023-03-15T03:18:58.817Z,86.64
2023-03-15T03:20:10.705Z,86.68
2023-03-15T03:21:15.966Z,86.79
2023-03-15T03:22:19.480Z,86.75
2023-03-15T03:23:25.786Z,86.87
2023-03-15T03:24:28.574Z,86.82
2023-03-15T03:25:31.576Z,86.80
2023-03-15T03:26:34.335Z,86.76
2023-03-15T03:27:37.751Z,86.70
2023-03-15T03:28:41.815Z,86.75
2023-03-15T03:29:44.929Z,86.94
2023-03-15T03:30:47.887Z,86.78
2023-03-15T03:31:50.942Z,86.78
2023-03-15T03:32:56.127Z,86.81
2023-03-15T03:33:58.888Z,86.89
2023-03-15T03:35:02.689Z,86.97
2023-03-15T03:36:05.692Z,86.88
2023-03-15T03:37:08.532Z,86.92
2023-03-15T03:38:44.944Z,86.95
2023-03-15T03:39:47.782Z,86.96
2023-03-15T03:40:51.662Z,86.90
2023-03-15T03:41:54.356Z,86.98
2023-03-15T03:42:57.015Z,86.93
2023-03-15T03:44:00.012Z,87.07
2023-03-15T03:45:04.098Z,86.96
2023-03-15T03:46:12.603Z,86.91
2023-03-15T03:47:19.417Z,87.05
2023-03-15T03:48:22.207Z,87.11
2023-03-15T03:49:24.991Z,87.09
2023-03-15T03:50:28.120Z,87.02
2023-03-15T03:51:31.270Z,87.05
2023-03-15T03:52:33.995Z,87.08
2023-03-15T03:53:41.424Z,87.00
2023-03-15T03:54:44.156Z,87.00
2023-03-15T03:55:46.873Z,87.06
2023-03-15T03:56:53.537Z,86.94
2023-03-15T03:57:58.426Z,87.08
2023-03-15T03:59:20.322Z,86.99
2023-03-15T04:00:30.958Z,87.13
2023-03-15T04:01:33.754Z,87.06
2023-03-15T04:02:36.506Z,87.24
2023-03-15T04:03:42.113Z,87.16
2023-03-15T04:04:50.351Z,87.29
2023-03-15T04:05:55.907Z,87.16
2023-03-15T04:06:59.878Z,87.13
2023-03-15T04:08:07.940Z,87.15
2023-03-15T04:09:15.814Z,87.17
2023-03-15T04:10:26.927Z,87.17
2023-03-15T04:11:30.165Z,87.05
2023-03-15T04:12:37.141Z,87.06
2023-03-15T04:13:40.196Z,87.03
2023-03-15T04:14:43.039Z,87.06
2023-03-15T04:15:47.739Z,87.13
2023-03-15T04:16:50.549Z,87.05
2023-03-15T04:17:58.530Z,87.04
2023-03-15T04:19:08.178Z,87.11
2023-03-15T04:20:13.058Z,87.07
2023-03-15T04:21:23.092Z,87.08
2023-03-15T04:22:28.841Z,87.03
2023-03-15T04:23:50.103Z,87.11
2023-03-15T04:25:04.792Z,87.03
2023-03-15T04:26:30.523Z,87.09
2023-03-15T04:27:45.031Z,87.10
2023-03-15T04:29:09.369Z,87.01
2023-03-15T04:30:35.214Z,87.03
2023-03-15T04:32:02.161Z,87.00
2023-03-15T04:33:24.579Z,87.17
2023-03-15T04:34:39.110Z,87.02
2023-03-15T04:35:49.303Z,87.12
2023-03-15T04:37:12.273Z,86.98
2023-03-15T04:38:32.377Z,86.98
2023-03-15T04:39:43.238Z,87.04
2023-03-15T04:41:10.937Z,87.04
2023-03-15T04:42:32.307Z,86.94
2023-03-15T04:43:56.399Z,86.99
2023-03-15T04:45:09.434Z,86.88
2023-03-15T04:46:28.611Z,86.96
2023-03-15T04:47:51.815Z,86.97
2023-03-15T04:49:20.722Z,86.97
2023-03-15T04:50:30.915Z,86.93
2023-03-15T04:51:52.618Z,86.81
2023-03-15T04:53:07.745Z,86.99
2023-03-15T04:54:30.163Z,86.89
2023-03-15T04:55:58.859Z,86.88
2023-03-15T04:57:10.394Z,86.72
2023-03-15T04:58:30.921Z,86.84
2023-03-15T04:59:59.813Z,86.75
2023-03-15T05:01:23.847Z,86.67
2023-03-15T05:02:55.239Z,86.69
2023-03-15T05:04:05.721Z,86.49
2023-03-15T05:05:35.192Z,86.50
2023-03-15T05:07:00.416Z,86.33
2023-03-15T05:08:21.631Z,86.04
2023-03-15T05:09:48.045Z,85.97
2023-03-15T05:11:06.582Z,85.62
2023-03-15T05:12:33.793Z,85.70
2023-03-15T05:13:56.825Z,85.39
2023-03-15T05:15:25.595Z,85.44
2023-03-15T05:16:56.485Z,85.37
2023-03-15T05:18:08.620Z,85.39
2023-03-15T05:19:37.546Z,85.34
2023-03-15T05:20:59.113Z,85.53
2023-03-15T05:22:25.521Z,85.49
2023-03-15T05:23:43.252Z,85.52
2023-03-15T05:25:04.800Z,85.70
2023-03-15T05:26:26.145Z,85.71
2023-03-15T05:27:50.779Z,85.69
2023-03-15T05:29:02.288Z,85.81
2023-03-15T05:30:22.241Z,85.64
2023-03-15T05:31:43.378Z,85.66
2023-03-15T05:32:58.051Z,85.69
2023-03-15T05:34:24.342Z,85.70
2023-03-15T05:35:37.872Z,85.70
2023-03-15T05:37:10.469Z,85.71
2023-03-15T05:38:37.771Z,85.74
2023-03-15T05:40:01.447Z,85.51
2023-03-15T05:41:23.932Z,85.44
2023-03-15T05:42:35.499Z,85.48
2023-03-15T05:43:56.598Z,85.26
2023-03-15T05:45:38.351Z,85.32
2023-03-15T05:47:00.297Z,85.65
2023-03-15T05:48:21.863Z,85.43
2023-03-15T05:50:00.324Z,85.41
2023-03-15T05:51:20.854Z,85.41
2023-03-15T05:52:41.839Z,85.29
2023-03-15T05:53:51.335Z,85.16
2023-03-15T05:55:14.342Z,85.04
2023-03-15T05:56:28.973Z,84.95
2023-03-15T05:57:52.038Z,84.92
2023-03-15T05:59:11.425Z,84.97
2023-03-15T06:00:26.392Z,85.04
2023-03-15T06:01:29.959Z,84.86
2023-03-15T06:02:41.462Z,84.63
2023-03-15T06:03:55.610Z,84.60
2023-03-15T06:04:59.518Z,84.56
2023-03-15T06:06:03.437Z,84.57
2023-03-15T06:07:11.714Z,84.47
2023-03-15T06:08:14.478Z,84.43
2023-03-15T06:09:19.140Z,84.45
2023-03-15T06:10:23.317Z,84.39
2023-03-15T06:11:26.359Z,84.33
2023-03-15T06:12:29.761Z,84.12
2023-03-15T06:13:33.269Z,84.11
2023-03-15T06:14:37.711Z,84.17
2023-03-15T06:15:43.126Z,84.15
2023-03-15T06:16:46.061Z,84.23
2023-03-15T06:17:49.174Z,84.16
2023-03-15T06:18:51.867Z,84.05
2023-03-15T06:19:54.880Z,84.25
2023-03-15T06:20:57.581Z,84.02
2023-03-15T06:22:00.269Z,83.91
2023-03-15T06:23:14.576Z,83.71
2023-03-15T06:24:21.228Z,83.80
2023-03-15T06:25:24.571Z,83.75
2023-03-15T06:26:27.260Z,83.72
2023-03-15T06:27:33.828Z,83.70
2023-03-15T06:28:37.676Z,83.81
2023-03-15T06:29:40.819Z,83.74
2023-03-15T06:30:43.768Z,83.86
2023-03-15T06:31:49.722Z,83.77
2023-03-15T06:32:53.212Z,83.77
2023-03-15T06:33:56.048Z,83.80
2023-03-15T06:34:58.786Z,83.70
2023-03-15T06:36:01.540Z,83.86
2023-03-15T06:37:04.865Z,83.84
2023-03-15T06:38:07.622Z,83.97
2023-03-15T06:39:12.534Z,83.84
2023-03-15T06:40:15.366Z,83.89
2023-03-15T06:41:18.651Z,83.84
2023-03-15T06:42:21.641Z,84.01
2023-03-15T06:43:24.949Z,84.01
2023-03-15T06:44:27.779Z,84.04
2023-03-15T06:45:33.989Z,83.87
2023-03-15T06:46:37.166Z,83.95
2023-03-15T06:47:40.295Z,83.84
2023-03-15T06:48:43.213Z,83.93
2023-03-15T06:49:50.393Z,83.69
2023-03-15T06:50:53.389Z,83.64
2023-03-15T06:51:56.097Z,83.72
2023-03-15T06:52:59.902Z,83.79
2023-03-15T06:54:03.072Z,83.69
2023-03-15T06:55:07.187Z,83.69
2023-03-15T06:56:10.015Z,83.71
2023-03-15T06:57:13.090Z,83.61
2023-03-15T06:58:15.884Z,83.73
2023-03-15T06:59:18.527Z,83.44
2023-03-15T07:00:22.629Z,83.31
2023-03-15T07:01:25.359Z,83.17
2023-03-15T07:02:28.137Z,83.10
2023-03-15T07:03:30.988Z,82.83
2023-03-15T07:04:33.647Z,83.15
2023-03-15T07:05:37.281Z,83.16
2023-03-15T07:06:40.000Z,83.02
2023-03-15T07:07:42.973Z,83.08
2023-03-15T07:08:45.641Z,82.77
2023-03-15T07:09:48.408Z,82.85
2023-03-15T07:10:51.136Z,82.87
2023-03-15T07:11:53.801Z,82.75
2023-03-15T07:12:56.585Z,82.86
2023-03-15T07:13:59.258Z,82.98
2023-03-15T07:15:02.019Z,82.93
2023-03-15T07:16:04.946Z,82.92
2023-03-15T07:17:07.868Z,82.80
2023-03-15T07:18:10.610Z,82.93
2023-03-15T07:19:13.335Z,83.10
2023-03-15T07:20:16.301Z,83.05
2023-03-15T07:21:19.508Z,82.55
2023-03-15T07:22:23.026Z,82.53
2023-03-15T07:23:25.972Z,82.58
2023-03-15T07:24:28.640Z,82.51
2023-03-15T07:25:31.455Z,82.55
2023-03-15T07:26:34.200Z,82.66
2023-03-15T07:27:36.882Z,82.66
2023-03-15T07:28:39.532Z,82.81
2023-03-15T07:29:42.442Z,82.85
2023-03-15T07:30:52.213Z,82.76
2023-03-15T07:31:54.960Z,82.66
2023-03-15T07:32:57.686Z,82.59
2023-03-15T07:34:00.642Z,82.86
2023-03-15T07:35:03.367Z,82.79
2023-03-15T07:36:07.249Z,82.69
2023-03-15T07:37:13.579Z,82.78
2023-03-15T07:38:16.267Z,82.77
2023-03-15T07:39:19.054Z,82.81
2023-03-15T07:40:21.783Z,82.88
2023-03-15T07:41:24.473Z,82.97
2023-03-15T07:42:33.629Z,82.90
2023-03-15T07:43:36.593Z,83.08
2023-03-15T07:44:50.752Z,83.14
2023-03-15T07:45:53.454Z,83.17
2023-03-15T07:46:56.239Z,83.04
2023-03-15T07:47:59.159Z,83.05
2023-03-15T07:49:01.831Z,83.14
2023-03-15T07:50:05.489Z,83.27
2023-03-15T07:51:08.346Z,83.08
2023-03-15T07:52:11.147Z,82.93
2023-03-15T07:53:13.904Z,82.90
2023-03-15T07:54:16.678Z,83.22
2023-03-15T07:55:19.589Z,83.05
2023-03-15T07:56:22.240Z,83.07
2023-03-15T07:57:25.844Z,83.30
2023-03-15T07:58:29.838Z,83.48
2023-03-15T07:59:33.718Z,83.50
2023-03-15T08:00:42.958Z,83.37
2023-03-15T08:01:45.779Z,83.33
2023-03-15T08:02:48.833Z,83.26
2023-03-15T08:03:51.604Z,82.85
2023-03-15T08:04:54.245Z,82.74
2023-03-15T08:05:57.038Z,82.62
2023-03-15T08:06:59.789Z,82.49
2023-03-15T08:08:02.779Z,82.62
2023-03-15T08:09:06.807Z,82.78
2023-03-15T08:10:09.773Z,82.61
2023-03-15T08:11:12.729Z,82.62
2023-03-15T08:12:15.770Z,82.26
2023-03-15T08:13:18.418Z,81.69
2023-03-15T08:14:21.200Z,81.70
2023-03-15T08:15:24.427Z,81.76
2023-03-15T08:17:04.644Z,81.60
2023-03-15T08:18:28.990Z,81.48
2023-03-15T08:19:31.780Z,81.32
2023-03-15T08:20:34.480Z,81.27
2023-03-15T08:21:37.218Z,81.05
2023-03-15T08:22:40.054Z,80.85
2023-03-15T08:23:42.701Z,80.57
2023-03-15T08:24:46.092Z,80.84
2023-03-15T08:25:50.106Z,80.78
2023-03-15T08:26:52.821Z,80.72
2023-03-15T08:27:56.278Z,80.77
2023-03-15T08:28:59.254Z,80.88
2023-03-15T08:30:01.904Z,80.82
2023-03-15T08:31:08.325Z,80.77
2023-03-15T08:32:11.105Z,80.81
2023-03-15T08:33:13.787Z,80.66
2023-03-15T08:34:16.496Z,80.45
2023-03-15T08:35:21.086Z,80.58
2023-03-15T08:36:23.784Z,80.45
2023-03-15T08:37:26.760Z,80.82
2023-03-15T08:38:29.471Z,80.90
2023-03-15T08:39:32.134Z,80.46
2023-03-15T08:40:34.861Z,80.66
2023-03-15T08:41:37.609Z,80.47
2023-03-15T08:42:40.407Z,80.66
2023-03-15T08:43:43.450Z,80.54
2023-03-15T08:44:46.112Z,80.65
2023-03-15T08:46:00.619Z,80.64
2023-03-15T08:47:05.307Z,80.63
2023-03-15T08:48:08.038Z,80.67
2023-03-15T08:49:10.975Z,80.34
2023-03-15T08:50:15.228Z,80.51
2023-03-15T08:51:17.991Z,80.63
2023-03-15T08:52:21.512Z,80.74
2023-03-15T08:53:24.160Z,80.81
2023-03-15T08:54:27.585Z,80.78
2023-03-15T08:55:30.799Z,80.69
2023-03-15T08:56:33.821Z,80.36
2023-03-15T08:57:36.878Z,80.15
2023-03-15T08:58:39.604Z,79.95
2023-03-15T08:59:43.842Z,79.59
2023-03-15T09:00:48.557Z,79.68
2023-03-15T09:01:51.251Z,79.18
2023-03-15T09:02:54.091Z,78.50
2023-03-15T09:03:56.893Z,78.68
2023-03-15T09:04:59.825Z,79.34
2023-03-15T09:06:02.497Z,79.36
2023-03-15T09:07:06.239Z,79.38
2023-03-15T09:08:09.208Z,79.46
2023-03-15T09:09:11.907Z,79.63
2023-03-15T09:10:15.827Z,79.60
2023-03-15T09:11:18.496Z,79.22
2023-03-15T09:12:21.503Z,79.44
2023-03-15T09:13:24.588Z,79.51
2023-03-15T09:14:27.373Z,79.24
2023-03-15T09:15:30.500Z,79.24
2023-03-15T09:16:33.182Z,79.32
2023-03-15T09:17:35.977Z,79.35
2023-03-15T09:18:40.615Z,79.41
2023-03-15T09:19:43.254Z,79.27
2023-03-15T09:20:46.105Z,79.01
2023-03-15T09:21:48.919Z,79.23
2023-03-15T09:22:52.771Z,79.28
2023-03-15T09:23:55.493Z,78.79
2023-03-15T09:24:58.185Z,78.70
2023-03-15T09:26:00.991Z,78.97
2023-03-15T09:27:03.704Z,78.84
2023-03-15T09:28:07.932Z,78.80
2023-03-15T09:29:10.746Z,78.77
2023-03-15T09:30:14.112Z,78.92
2023-03-15T09:31:16.868Z,78.83
2023-03-15T09:32:21.161Z,78.53
2023-03-15T09:33:23.851Z,78.94
2023-03-15T09:34:27.561Z,78.97
2023-03-15T09:35:33.491Z,79.02
2023-03-15T09:36:36.275Z,78.85
2023-03-15T09:37:38.988Z,78.92
2023-03-15T09:38:43.075Z,78.88
2023-03-15T09:39:45.692Z,78.44
2023-03-15T09:40:48.436Z,78.44
2023-03-15T09:41:53.637Z,78.90
2023-03-15T09:42:59.124Z,79.04
2023-03-15T09:44:09.363Z,78.67
2023-03-15T09:45:32.493Z,78.38
2023-03-15T09:47:04.504Z,78.61
2023-03-15T09:48:18.107Z,78.27
2023-03-15T09:49:28.394Z,77.78
2023-03-15T09:50:33.125Z,77.45
2023-03-15T09:51:48.084Z,77.21
2023-03-15T09:53:11.047Z,77.06
2023-03-15T09:54:18.154Z,77.56
2023-03-15T09:55:23.590Z,77.70
2023-03-15T09:56:49.292Z,77.54
2023-03-15T09:57:59.837Z,77.59
2023-03-15T09:59:03.085Z,77.66
2023-03-15T10:00:12.860Z,77.26
2023-03-15T10:01:17.192Z,77.05
2023-03-15T10:02:23.872Z,77.05
2023-03-15T10:03:29.380Z,77.18
2023-03-15T10:04:40.518Z,77.28
2023-03-15T10:05:45.926Z,77.21
2023-03-15T10:06:54.227Z,76.90
2023-03-15T10:07:57.646Z,76.43
2023-03-15T10:09:01.953Z,76.31
2023-03-15T10:10:08.950Z,76.22
2023-03-15T10:11:18.827Z,76.42
2023-03-15T10:12:26.465Z,76.40
2023-03-15T10:13:38.952Z,76.36
2023-03-15T10:15:00.853Z,76.41
2023-03-15T10:16:11.217Z,76.05
2023-03-15T10:17:15.767Z,75.93
2023-03-15T10:18:28.035Z,76.14
2023-03-15T10:19:50.258Z,76.39
2023-03-15T10:21:06.452Z,76.09
2023-03-15T10:22:10.190Z,76.36
2023-03-15T10:23:12.852Z,75.75
2023-03-15T10:24:34.548Z,74.97
2023-03-15T10:25:37.775Z,75.35
2023-03-15T10:26:42.213Z,75.08
2023-03-15T10:27:49.898Z,74.72
2023-03-15T11:12:27.661Z,74.91
2023-03-15T11:13:33.426Z,74.92
2023-03-15T11:14:43.562Z,75.19
2023-03-15T11:15:55.346Z,75.16
2023-03-15T11:16:59.140Z,75.14
2023-03-15T11:18:01.941Z,75.13
2023-03-15T11:19:15.334Z,75.31
2023-03-15T11:21:42.551Z,75.51
2023-03-15T11:22:45.418Z,74.90
2023-03-15T11:23:50.285Z,74.60
2023-03-15T11:24:54.832Z,74.79
2023-03-15T11:25:58.399Z,75.02
2023-03-15T11:27:04.053Z,75.00
2023-03-15T11:28:15.827Z,74.91
2023-03-15T11:29:34.488Z,74.78
2023-03-15T11:30:41.384Z,74.50
2023-03-15T11:31:44.460Z,74.70
2023-03-15T11:34:12.469Z,75.00
2023-03-15T11:35:39.931Z,74.99
2023-03-15T11:36:55.686Z,74.53
2023-03-15T11:38:15.446Z,73.45
2023-03-15T11:39:39.585Z,73.88
2023-03-15T11:40:51.140Z,74.46
2023-03-15T11:41:59.316Z,74.77
2023-03-15T11:43:15.381Z,74.60
2023-03-15T11:44:30.224Z,74.63
2023-03-15T11:45:43.405Z,74.26
2023-03-15T11:47:28.309Z,73.66
2023-03-15T11:48:57.219Z,73.96
2023-03-15T11:50:00.132Z,73.95
2023-03-15T11:51:03.240Z,74.30
2023-03-15T11:52:06.678Z,74.19
2023-03-15T11:53:12.655Z,74.24
2023-03-15T11:54:20.974Z,73.90
2023-03-15T11:55:28.847Z,73.94
2023-03-15T11:56:43.964Z,74.07
2023-03-15T11:57:49.512Z,74.01
2023-03-15T11:59:15.435Z,74.30
2023-03-15T12:00:34.545Z,74.52
2023-03-15T12:01:38.028Z,74.80
2023-03-15T12:02:49.006Z,74.90
2023-03-15T12:04:26.634Z,74.94
2023-03-15T12:05:49.655Z,74.26
2023-03-15T12:06:54.758Z,74.15
2023-03-15T12:08:15.658Z,73.89
2023-03-15T12:09:33.380Z,73.40
2023-03-15T12:10:46.433Z,73.22
2023-03-15T12:11:49.597Z,73.03
2023-03-15T12:12:58.972Z,73.06
2023-03-15T12:14:01.817Z,73.04
2023-03-15T12:15:19.805Z,73.28
2023-03-15T12:16:26.494Z,72.75
2023-03-15T12:17:37.327Z,72.86
2023-03-15T12:18:45.005Z,72.98
2023-03-15T12:19:47.969Z,72.93
2023-03-15T12:20:58.523Z,72.79
2023-03-15T12:22:01.383Z,72.94
2023-03-15T12:23:19.665Z,72.97
2023-03-15T12:24:27.281Z,72.37
2023-03-15T12:25:45.473Z,72.55
2023-03-15T12:27:18.600Z,72.53
2023-03-15T12:28:28.700Z,72.44
2023-03-15T12:29:34.006Z,72.30
2023-03-15T12:30:45.373Z,71.57
2023-03-15T12:32:03.360Z,71.47
2023-03-15T12:33:16.938Z,71.94
2023-03-15T12:34:51.199Z,72.28
2023-03-15T12:36:08.096Z,72.24
2023-03-15T12:37:16.862Z,71.99
2023-03-15T12:38:24.314Z,71.92
2023-03-15T12:39:39.163Z,71.75
2023-03-15T12:40:50.410Z,72.03
2023-03-15T12:41:53.250Z,72.40
2023-03-15T12:42:57.383Z,71.52
2023-03-15T12:44:21.925Z,71.78
2023-03-15T12:45:27.713Z,71.38
2023-03-15T12:46:36.852Z,71.86
2023-03-15T12:47:46.755Z,71.89
2023-03-15T12:49:18.578Z,71.86
2023-03-15T12:50:47.200Z,71.72
2023-03-15T12:51:59.365Z,71.25
2023-03-15T12:53:15.617Z,71.36
2023-03-15T12:54:18.932Z,71.61
2023-03-15T12:55:21.949Z,71.91
2023-03-15T12:56:42.593Z,71.62
2023-03-15T12:57:49.065Z,71.41
2023-03-15T12:58:58.286Z,72.09
2023-03-15T13:00:12.888Z,72.10
2023-03-15T13:01:17.757Z,71.56
2023-03-15T13:02:45.623Z,72.13
2023-03-15T13:03:48.593Z,71.89
2023-03-15T13:05:00.449Z,72.42
2023-03-15T13:06:13.230Z,72.17
2023-03-15T13:07:50.943Z,72.17
2023-03-15T13:08:58.017Z,72.24
2023-03-15T13:10:16.261Z,72.45
2023-03-15T13:12:00.421Z,72.20
2023-03-15T13:13:25.377Z,72.26
2023-03-15T13:14:39.828Z,72.09
2023-03-15T13:15:42.895Z,72.07
2023-03-15T13:16:56.429Z,72.50
2023-03-15T13:18:09.535Z,72.74
2023-03-15T13:19:18.943Z,72.62
2023-03-15T13:20:38.701Z,72.38
2023-03-15T13:22:05.781Z,72.15
2023-03-15T13:23:20.132Z,71.90
2023-03-15T13:24:36.045Z,71.90
2023-03-15T13:25:48.106Z,71.72
2023-03-15T13:27:30.248Z,71.58
2023-03-15T13:28:39.890Z,71.88
2023-03-15T13:29:42.703Z,72.01
2023-03-15T13:30:52.569Z,72.03
2023-03-15T13:32:16.470Z,71.98
2023-03-15T13:33:32.241Z,72.12
2023-03-15T13:34:35.699Z,72.12
2023-03-15T13:35:54.775Z,72.02
2023-03-15T13:36:59.096Z,72.50
2023-03-15T13:38:20.865Z,72.23
2023-03-15T13:39:32.536Z,72.20
2023-03-15T13:40:35.461Z,72.34
2023-03-15T13:41:38.699Z,72.38
2023-03-15T13:42:42.844Z,72.19
2023-03-15T13:43:46.608Z,72.26
2023-03-15T13:45:17.715Z,72.35
2023-03-15T13:46:26.801Z,72.05
2023-03-15T13:47:29.601Z,72.26
2023-03-15T13:48:35.577Z,72.10
2023-03-15T13:49:38.364Z,71.92
2023-03-15T13:50:41.160Z,71.68
2023-03-15T13:51:45.868Z,71.57
2023-03-15T13:52:49.193Z,71.79
2023-03-15T13:54:00.900Z,71.96
2023-03-15T13:55:05.409Z,72.04
2023-03-15T13:56:09.911Z,72.07
2023-03-15T13:57:16.476Z,71.83
2023-03-15T13:58:21.459Z,72.08
2023-03-15T13:59:30.148Z,72.19
2023-03-15T14:00:35.891Z,72.26
2023-03-15T14:01:42.492Z,72.23
2023-03-15T14:02:54.153Z,72.23
2023-03-15T14:04:05.798Z,72.47
2023-03-15T14:05:12.810Z,72.37
2023-03-15T14:06:22.655Z,72.05
2023-03-15T14:07:33.974Z,71.93
2023-03-15T14:08:38.550Z,72.00
2023-03-15T14:09:41.332Z,72.20
2023-03-15T14:10:56.866Z,72.20
2023-03-15T14:12:02.915Z,71.37
2023-03-15T14:13:25.676Z,71.31
2023-03-15T14:14:31.182Z,71.33
2023-03-15T14:15:41.503Z,71.01
2023-03-15T14:17:02.885Z,70.75
2023-03-15T14:18:09.259Z,71.03
2023-03-15T14:19:19.216Z,71.17
2023-03-15T14:20:28.590Z,71.26
2023-03-15T14:21:32.504Z,71.30
2023-03-15T14:22:36.461Z,71.32
2023-03-15T14:23:44.500Z,70.81
2023-03-15T14:24:51.098Z,70.89
2023-03-15T14:25:56.806Z,71.05
2023-03-15T14:27:02.244Z,71.20
2023-03-15T14:28:06.176Z,71.16
2023-03-15T14:29:32.288Z,71.24
2023-03-15T14:30:37.494Z,71.32
2023-03-15T14:31:46.505Z,71.62
2023-03-15T14:32:55.771Z,71.67
2023-03-15T14:34:08.111Z,71.51
2023-03-15T14:35:49.091Z,71.35
2023-03-15T14:36:54.260Z,71.45
2023-03-15T14:38:03.328Z,71.79
2023-03-15T14:39:18.837Z,71.80
2023-03-15T14:40:29.878Z,71.89
2023-03-15T14:41:33.316Z,71.89
2023-03-15T14:43:03.035Z,71.85
2023-03-15T14:44:43.357Z,71.91
2023-03-15T14:45:48.223Z,72.19
2023-03-15T14:46:51.280Z,72.17
2023-03-15T14:48:06.919Z,72.34
2023-03-15T14:49:13.538Z,72.52
2023-03-15T14:50:19.877Z,72.49
2023-03-15T14:51:24.733Z,72.37
2023-03-15T14:52:27.673Z,72.39
2023-03-15T14:53:36.815Z,72.24
2023-03-15T14:54:49.686Z,72.27
2023-03-15T14:55:52.565Z,71.93
2023-03-15T14:56:55.332Z,72.13
2023-03-15T14:57:58.100Z,72.25
2023-03-15T14:59:03.303Z,72.37
2023-03-15T15:00:10.451Z,71.98
2023-03-15T15:01:17.849Z,72.00
2023-03-15T15:02:20.897Z,72.20
2023-03-15T15:03:48.539Z,72.24
2023-03-15T15:04:51.937Z,71.96
2023-03-15T15:05:54.859Z,72.05
2023-03-15T15:06:58.048Z,72.12
2023-03-15T15:08:07.082Z,71.94
2023-03-15T15:09:10.916Z,72.00
2023-03-15T15:10:14.089Z,71.99
2023-03-15T15:11:16.930Z,71.85
2023-03-15T15:12:19.784Z,71.77
2023-03-15T15:13:28.735Z,71.80
2023-03-15T15:14:31.755Z,71.69
2023-03-15T15:15:53.522Z,71.67
2023-03-15T15:16:57.416Z,71.73
2023-03-15T15:18:00.229Z,71.82
2023-03-15T15:19:03.055Z,71.95
2023-03-15T15:20:07.514Z,71.90
2023-03-15T15:21:33.928Z,71.84
2023-03-15T15:22:36.926Z,71.78
2023-03-15T15:23:56.990Z,71.88
2023-03-15T15:25:00.568Z,71.90